Binford, Mississippi
Current Conditions -  °F | °C
As of 11:15 AM on Friday 31 Oct 2014 (Local Time) from KM40 Reporting Station
Clear Clear  
Wind Chill: 64°   Ceiling: Unl
Heat Index: 64°   Visibility: 9mi
Dew Point: 48°   Wind: 10mph
Humidity: 56%   Direction: 350°N
Pressure: 30.05"   Gusts: NA
Location:  33.8251°N, 88.6185°W
Report Text: KM40 311615Z AUTO 35009KT 9SM CLR 18/09 A3005 RMK AO2
Loading
Personal Weather Stations






























Interactive Weather Map
Tropical Storm Tracking
New forecast layout! Learn more

10-Day Weather Forecast

Advertisements
Track Severe Weather on mobile